createdAt,value
2022-08-09T00:04:34.340Z,20.10
2022-08-09T00:09:39.130Z,20.10
2022-08-09T00:14:42.199Z,20.00
2022-08-09T00:19:48.696Z,20.00
2022-08-09T00:24:55.803Z,20.00
2022-08-09T00:30:23.515Z,19.90
2022-08-09T00:35:21.796Z,19.90
2022-08-09T00:40:30.356Z,19.90
2022-08-09T00:45:35.205Z,19.80
2022-08-09T00:50:38.576Z,19.80
2022-08-09T00:56:04.862Z,19.70
2022-08-09T01:01:19.333Z,19.70
2022-08-09T01:06:54.820Z,19.60
2022-08-09T01:12:12.811Z,19.60
2022-08-09T01:17:23.633Z,19.50
2022-08-09T01:23:00.355Z,19.50
2022-08-09T01:28:05.743Z,19.50
2022-08-09T01:33:10.262Z,19.50
2022-08-09T01:38:24.730Z,19.50
2022-08-09T01:43:29.311Z,19.50
2022-08-09T01:48:38.032Z,19.40
2022-08-09T01:53:42.665Z,19.40
2022-08-09T01:58:49.060Z,19.40
2022-08-09T02:03:56.554Z,19.30
2022-08-09T02:09:00.004Z,19.30
2022-08-09T02:14:07.524Z,19.30
2022-08-09T02:19:11.225Z,19.30
2022-08-09T02:24:26.385Z,19.30
2022-08-09T02:29:35.454Z,19.20
2022-08-09T02:34:51.967Z,19.20
2022-08-09T02:40:10.371Z,19.20
2022-08-09T02:45:34.269Z,19.10
2022-08-09T02:51:01.777Z,19.00
2022-08-09T02:56:07.582Z,18.90
2022-08-09T03:01:15.079Z,18.80
2022-08-09T03:06:27.537Z,18.80
2022-08-09T03:12:05.695Z,18.80
2022-08-09T03:16:55.657Z,18.80
2022-08-09T03:22:03.083Z,18.80
2022-08-09T03:27:11.960Z,18.80
2022-08-09T03:32:18.048Z,18.90
2022-08-09T03:37:55.242Z,18.90
2022-08-09T03:42:47.157Z,18.80
2022-08-09T03:47:50.313Z,18.80
2022-08-09T03:52:59.842Z,18.90
2022-08-09T03:58:14.961Z,18.80
2022-08-09T04:03:35.607Z,18.90
2022-08-09T04:08:46.599Z,18.90
2022-08-09T04:14:53.981Z,18.90
2022-08-09T04:19:15.843Z,18.90
2022-08-09T04:24:33.291Z,18.70
2022-08-09T04:29:36.149Z,18.60
2022-08-09T04:34:54.035Z,18.70
2022-08-09T04:39:57.353Z,18.80
2022-08-09T04:45:01.460Z,18.90
2022-08-09T04:50:05.275Z,19.00
2022-08-09T04:55:13.505Z,19.30
2022-08-09T05:00:17.396Z,19.50
2022-08-09T05:05:32.390Z,19.70
2022-08-09T05:10:45.072Z,19.90
2022-08-09T05:15:56.446Z,20.20
2022-08-09T05:21:01.231Z,20.40
2022-08-09T05:26:04.542Z,20.60
2022-08-09T05:31:09.377Z,20.70
2022-08-09T05:36:15.570Z,20.80
2022-08-09T05:41:18.669Z,21.00
2022-08-09T05:46:21.429Z,21.20
2022-08-09T05:51:42.743Z,21.40
2022-08-09T05:56:54.729Z,21.60
2022-08-09T06:01:58.920Z,21.70
2022-08-09T06:07:03.873Z,21.80
2022-08-09T06:12:07.024Z,21.90
2022-08-09T06:17:12.042Z,22.10
2022-08-09T06:22:17.412Z,22.20
2022-08-09T06:27:20.669Z,22.40
2022-08-09T06:33:00.112Z,22.60
2022-08-09T06:38:05.247Z,22.80
2022-08-09T06:43:10.592Z,23.10
2022-08-09T06:48:16.564Z,23.30
2022-08-09T06:53:20.171Z,23.40
2022-08-09T07:00:47.023Z,23.60
2022-08-09T07:03:52.547Z,23.90
2022-08-09T07:08:57.680Z,24.00
2022-08-09T07:14:04.910Z,24.30
2022-08-09T07:19:15.570Z,24.40
2022-08-09T07:24:21.421Z,24.60
2022-08-09T07:29:42.507Z,24.70
2022-08-09T07:34:46.004Z,25.00
2022-08-09T07:39:50.127Z,25.20
2022-08-09T07:44:56.271Z,25.40
2022-08-09T07:50:07.846Z,25.60
2022-08-09T07:55:11.853Z,25.80
2022-08-09T08:00:35.606Z,25.90
2022-08-09T08:05:57.868Z,26.00
2022-08-09T08:11:03.358Z,26.10
2022-08-09T08:16:31.365Z,26.20
2022-08-09T08:21:39.479Z,26.30
2022-08-09T08:26:56.173Z,26.40
2022-08-09T08:32:03.927Z,26.60
2022-08-09T08:37:14.332Z,26.80
2022-08-09T08:42:24.375Z,26.90
2022-08-09T08:47:38.534Z,27.10
2022-08-09T08:52:58.340Z,27.20
2022-08-09T08:58:03.279Z,27.30
2022-08-09T09:03:20.735Z,27.30
2022-08-09T09:08:29.915Z,27.50
2022-08-09T09:13:55.560Z,27.50
2022-08-09T09:19:36.623Z,27.70
2022-08-09T09:24:34.686Z,27.90
2022-08-09T09:30:12.089Z,28.10
2022-08-09T09:35:10.735Z,28.10
2022-08-09T09:40:16.572Z,28.30
2022-08-09T09:45:26.607Z,28.50
2022-08-09T09:50:51.325Z,28.70
2022-08-09T09:56:04.579Z,28.90
2022-08-09T10:01:37.359Z,29.10
2022-08-09T10:06:51.793Z,29.30
2022-08-09T10:12:14.844Z,29.40
2022-08-09T10:17:51.308Z,29.50
2022-08-09T10:22:58.523Z,29.60
2022-08-09T10:28:04.123Z,29.80
2022-08-09T10:33:08.105Z,29.90
2022-08-09T10:38:33.994Z,30.10
2022-08-09T10:43:50.546Z,30.10
2022-08-09T10:49:50.921Z,30.50
2022-08-09T10:55:22.827Z,30.40
2022-08-09T11:00:29.478Z,30.50
2022-08-09T11:05:32.400Z,30.50
2022-08-09T11:10:47.162Z,30.60
2022-08-09T11:16:41.223Z,30.80
2022-08-09T11:21:57.390Z,30.90
2022-08-09T11:28:05.486Z,30.80
2022-08-09T11:33:17.750Z,30.60
2022-08-09T11:38:32.947Z,30.50
2022-08-09T11:43:46.687Z,30.30
2022-08-09T11:48:58.098Z,30.10
2022-08-09T11:54:28.716Z,30.00
2022-08-09T11:59:37.814Z,30.00
2022-08-09T12:04:41.396Z,29.80
2022-08-09T12:09:50.718Z,29.80
2022-08-09T12:15:08.318Z,29.80
2022-08-09T12:20:22.948Z,29.70
2022-08-09T12:25:36.794Z,29.70
2022-08-09T12:30:42.096Z,29.70
2022-08-09T12:35:45.746Z,29.70
2022-08-09T12:40:52.251Z,29.80
2022-08-09T12:46:00.308Z,29.70
2022-08-09T12:51:04.626Z,29.70
2022-08-09T12:56:34.810Z,29.60
2022-08-09T13:02:01.193Z,29.50
2022-08-09T13:07:51.015Z,29.50
2022-08-09T13:13:08.986Z,29.50
2022-08-09T13:18:17.506Z,29.50
2022-08-09T13:24:16.797Z,29.60
2022-08-09T13:29:42.028Z,29.50
2022-08-09T13:34:47.706Z,29.70
2022-08-09T13:41:52.525Z,29.80
2022-08-09T13:45:15.819Z,30.00
2022-08-09T13:50:30.934Z,30.10
2022-08-09T13:55:34.983Z,30.30
2022-08-09T14:00:48.209Z,30.40
2022-08-09T14:05:59.171Z,30.40
2022-08-09T14:11:03.059Z,30.40
2022-08-09T14:16:17.747Z,30.40
2022-08-09T14:21:24.172Z,30.30
2022-08-09T14:26:31.800Z,30.20
2022-08-09T14:31:49.670Z,30.00
2022-08-09T14:36:53.206Z,30.00
2022-08-09T14:41:56.751Z,30.00
2022-08-09T14:47:12.491Z,30.10
2022-08-09T14:52:19.987Z,30.10
2022-08-09T14:57:31.855Z,30.10
2022-08-09T15:02:47.255Z,30.10
2022-08-09T15:07:54.667Z,30.00
2022-08-09T15:13:01.701Z,30.00
2022-08-09T15:18:06.709Z,30.00
2022-08-09T15:24:01.003Z,30.00
2022-08-09T15:28:34.507Z,30.00
2022-08-09T15:34:04.375Z,30.00
2022-08-09T15:39:00.941Z,30.10
2022-08-09T15:44:04.195Z,30.40
2022-08-09T15:49:21.239Z,30.70
2022-08-09T15:54:30.088Z,30.80
2022-08-09T15:59:37.977Z,30.60
2022-08-09T16:04:42.679Z,30.40
2022-08-09T16:10:02.223Z,30.40
2022-08-09T16:16:04.628Z,30.30
2022-08-09T16:20:33.117Z,30.20
2022-08-09T16:25:39.602Z,30.30
2022-08-09T16:30:44.783Z,30.40
2022-08-09T16:36:01.893Z,30.40
2022-08-09T16:41:08.050Z,30.30
2022-08-09T16:46:21.374Z,30.30
2022-08-09T16:51:24.594Z,30.10
2022-08-09T16:56:27.672Z,30.00
2022-08-09T17:01:35.465Z,29.80
2022-08-09T17:08:41.233Z,29.60
2022-08-09T17:12:02.158Z,29.50
2022-08-09T17:17:23.306Z,29.30
2022-08-09T17:22:31.142Z,29.20
2022-08-09T17:27:38.285Z,29.00
2022-08-09T17:32:46.279Z,28.90
2022-08-09T17:38:02.497Z,28.70
2022-08-09T17:43:34.202Z,28.60
2022-08-09T17:48:40.379Z,28.40
2022-08-09T17:53:48.165Z,28.20
2022-08-09T17:59:03.108Z,27.90
2022-08-09T18:04:06.344Z,27.80
2022-08-09T18:09:12.080Z,27.60
2022-08-09T18:14:21.324Z,27.40
2022-08-09T18:20:54.656Z,27.30
2022-08-09T18:24:47.121Z,27.20
2022-08-09T18:30:35.529Z,27.00
2022-08-09T18:35:12.874Z,26.90
2022-08-09T18:40:19.280Z,26.90
2022-08-09T18:46:47.206Z,26.80
2022-08-09T18:50:53.786Z,26.70
2022-08-09T18:56:05.484Z,26.70
2022-08-09T19:01:08.607Z,26.60
2022-08-09T19:06:14.608Z,26.60
2022-08-09T19:11:18.072Z,26.50
2022-08-09T19:16:35.944Z,26.40
2022-08-09T19:21:52.457Z,26.30
2022-08-09T19:27:02.595Z,26.20
2022-08-09T19:32:07.741Z,26.10
2022-08-09T19:37:17.143Z,26.00
2022-08-09T19:42:20.510Z,25.90
2022-08-09T19:47:31.209Z,25.80
2022-08-09T19:52:51.568Z,25.70
2022-08-09T19:57:55.665Z,25.50
2022-08-09T20:04:10.757Z,25.30
2022-08-09T20:08:24.805Z,25.20
2022-08-09T20:13:36.870Z,25.10
2022-08-09T20:19:03.761Z,25.00
2022-08-09T20:24:04.759Z,24.90
2022-08-09T20:29:10.338Z,24.80
2022-08-09T20:34:22.058Z,24.80
2022-08-09T20:40:13.725Z,24.70
2022-08-09T20:44:50.901Z,24.60
2022-08-09T20:50:14.743Z,24.50
2022-08-09T20:55:47.159Z,24.50
2022-08-09T21:01:02.451Z,24.40
2022-08-09T21:06:20.861Z,24.30
2022-08-09T21:16:48.409Z,24.30
2022-08-09T21:21:56.686Z,24.30
2022-08-09T21:27:50.416Z,24.30
2022-08-09T21:32:33.649Z,24.20
2022-08-09T21:37:47.282Z,24.20
2022-08-09T21:43:02.030Z,24.20
2022-08-09T21:48:07.185Z,24.10
2022-08-09T21:53:19.909Z,24.00
2022-08-09T21:58:33.552Z,24.00
2022-08-09T22:03:59.008Z,24.00
2022-08-09T22:09:01.926Z,23.90
2022-08-09T22:14:05.454Z,23.90
2022-08-09T22:19:25.477Z,23.80
2022-08-09T22:24:39.850Z,23.70
2022-08-09T22:30:03.770Z,23.70
2022-08-09T22:36:01.924Z,23.50
2022-08-09T22:40:30.657Z,23.60
2022-08-09T22:48:15.521Z,23.50
2022-08-09T22:51:00.277Z,23.50
2022-08-09T22:56:30.604Z,23.40
2022-08-09T23:01:26.664Z,23.30
2022-08-09T23:06:51.018Z,23.20
2022-08-09T23:11:53.897Z,23.10
2022-08-09T23:16:57.017Z,23.00
2022-08-09T23:21:59.866Z,22.90
2022-08-09T23:27:02.684Z,22.80
2022-08-09T23:32:05.704Z,22.70
2022-08-09T23:37:09.261Z,22.60
2022-08-09T23:42:12.107Z,22.60
2022-08-09T23:47:14.856Z,22.60
2022-08-09T23:52:17.714Z,22.60
2022-08-09T23:57:20.546Z,22.50
